sensor_id;sensor_type;location;lat;lon;timestamp;temperature;humidity
23769;DHT22;12064;50.890;5.424;2023-04-01T00:01:25;17.80;90.30
23769;DHT22;12064;50.890;5.424;2023-04-01T00:10:17;17.80;90.30
23769;DHT22;12064;50.890;5.424;2023-04-01T00:19:07;17.80;90.50
23769;DHT22;12064;50.890;5.424;2023-04-01T00:27:58;17.80;90.50
23769;DHT22;12064;50.890;5.424;2023-04-01T00:36:52;17.70;90.50
23769;DHT22;12064;50.890;5.424;2023-04-01T00:45:44;17.70;90.60
23769;DHT22;12064;50.890;5.424;2023-04-01T00:54:36;17.70;90.70
23769;DHT22;12064;50.890;5.424;2023-04-01T01:03:28;17.70;90.80
23769;DHT22;12064;50.890;5.424;2023-04-01T01:12:40;17.70;90.80
23769;DHT22;12064;50.890;5.424;2023-04-01T01:21:49;17.70;90.90
23769;DHT22;12064;50.890;5.424;2023-04-01T01:39:56;17.70;91.00
23769;DHT22;12064;50.890;5.424;2023-04-01T01:48:47;17.60;91.00
23769;DHT22;12064;50.890;5.424;2023-04-01T01:57:42;17.60;91.00
23769;DHT22;12064;50.890;5.424;2023-04-01T02:06:37;17.60;91.10
23769;DHT22;12064;50.890;5.424;2023-04-01T02:15:31;17.60;91.10
23769;DHT22;12064;50.890;5.424;2023-04-01T02:24:26;17.60;91.20
23769;DHT22;12064;50.890;5.424;2023-04-01T02:33:19;17.60;91.60
23769;DHT22;12064;50.890;5.424;2023-04-01T02:42:10;17.60;91.40
23769;DHT22;12064;50.890;5.424;2023-04-01T02:51:01;17.60;91.40
23769;DHT22;12064;50.890;5.424;2023-04-01T02:59:52;17.60;91.40
23769;DHT22;12064;50.890;5.424;2023-04-01T03:08:43;17.60;91.50
23769;DHT22;12064;50.890;5.424;2023-04-01T03:17:34;17.60;91.40
23769;DHT22;12064;50.890;5.424;2023-04-01T03:26:24;17.60;91.50
23769;DHT22;12064;50.890;5.424;2023-04-01T03:35:17;17.50;91.50
23769;DHT22;12064;50.890;5.424;2023-04-01T03:44:08;17.50;91.50
23769;DHT22;12064;50.890;5.424;2023-04-01T03:52:59;17.50;91.60
23769;DHT22;12064;50.890;5.424;2023-04-01T04:01:49;17.60;91.60
23769;DHT22;12064;50.890;5.424;2023-04-01T04:10:43;17.60;91.70
23769;DHT22;12064;50.890;5.424;2023-04-01T04:19:34;17.60;91.70
23769;DHT22;12064;50.890;5.424;2023-04-01T04:28:26;17.50;91.70
23769;DHT22;12064;50.890;5.424;2023-04-01T04:37:17;17.50;91.70
23769;DHT22;12064;50.890;5.424;2023-04-01T04:46:11;17.50;91.80
23769;DHT22;12064;50.890;5.424;2023-04-01T04:55:01;17.50;91.80
23769;DHT22;12064;50.890;5.424;2023-04-01T05:03:52;17.50;91.80
23769;DHT22;12064;50.890;5.424;2023-04-01T05:12:43;17.50;91.90
23769;DHT22;12064;50.890;5.424;2023-04-01T05:21:33;17.50;91.90
23769;DHT22;12064;50.890;5.424;2023-04-01T05:30:24;17.50;92.00
23769;DHT22;12064;50.890;5.424;2023-04-01T05:39:15;17.50;92.00
23769;DHT22;12064;50.890;5.424;2023-04-01T05:48:05;17.50;92.00
23769;DHT22;12064;50.890;5.424;2023-04-01T05:56:56;17.50;92.00
23769;DHT22;12064;50.890;5.424;2023-04-01T06:05:47;17.50;92.00
23769;DHT22;12064;50.890;5.424;2023-04-01T06:23:58;17.50;92.00
23769;DHT22;12064;50.890;5.424;2023-04-01T06:51:23;17.50;92.00
23769;DHT22;12064;50.890;5.424;2023-04-01T07:00:25;17.50;91.90
23769;DHT22;12064;50.890;5.424;2023-04-01T07:09:32;17.40;91.80
23769;DHT22;12064;50.890;5.424;2023-04-01T07:18:52;17.50;91.70
23769;DHT22;12064;50.890;5.424;2023-04-01T07:27:45;17.50;91.60
23769;DHT22;12064;50.890;5.424;2023-04-01T07:36:42;17.40;91.60
23769;DHT22;12064;50.890;5.424;2023-04-01T07:55:19;17.50;91.40
23769;DHT22;12064;50.890;5.424;2023-04-01T08:22:42;17.40;92.00
23769;DHT22;12064;50.890;5.424;2023-04-01T08:31:51;17.50;92.00
23769;DHT22;12064;50.890;5.424;2023-04-01T08:41:02;17.50;91.90
23769;DHT22;12064;50.890;5.424;2023-04-01T09:08:33;17.50;91.80
23769;DHT22;12064;50.890;5.424;2023-04-01T09:26:51;17.50;91.80
23769;DHT22;12064;50.890;5.424;2023-04-01T09:35:47;17.50;91.90
23769;DHT22;12064;50.890;5.424;2023-04-01T09:44:57;17.60;91.80
23769;DHT22;12064;50.890;5.424;2023-04-01T09:53:52;17.60;91.80
23769;DHT22;12064;50.890;5.424;2023-04-01T12:02:25;17.80;91.40
23769;DHT22;12064;50.890;5.424;2023-04-01T12:20:50;17.80;91.20
23769;DHT22;12064;50.890;5.424;2023-04-01T13:33:50;17.80;90.80
23769;DHT22;12064;50.890;5.424;2023-04-01T13:52:08;17.90;90.80
23769;DHT22;12064;50.890;5.424;2023-04-01T14:01:46;17.90;90.70
23769;DHT22;12064;50.890;5.424;2023-04-01T14:10:56;17.90;90.70
23769;DHT22;12064;50.890;5.424;2023-04-01T14:38:28;17.90;90.50
23769;DHT22;12064;50.890;5.424;2023-04-01T14:47:53;17.80;90.60
23769;DHT22;12064;50.890;5.424;2023-04-01T14:56:48;17.90;90.60
23769;DHT22;12064;50.890;5.424;2023-04-01T15:42:19;17.90;90.50
23769;DHT22;12064;50.890;5.424;2023-04-01T15:51:40;17.80;90.60
23769;DHT22;12064;50.890;5.424;2023-04-01T16:01:15;17.80;90.60
23769;DHT22;12064;50.890;5.424;2023-04-01T16:37:50;17.80;90.70
23769;DHT22;12064;50.890;5.424;2023-04-01T16:46:58;17.80;90.70
23769;DHT22;12064;50.890;5.424;2023-04-01T16:56:22;17.80;90.80
23769;DHT22;12064;50.890;5.424;2023-04-01T17:05:13;17.90;90.70
23769;DHT22;12064;50.890;5.424;2023-04-01T17:23:32;17.80;90.80
23769;DHT22;12064;50.890;5.424;2023-04-01T17:42:09;17.90;90.80
23769;DHT22;12064;50.890;5.424;2023-04-01T17:51:32;17.80;90.90
23769;DHT22;12064;50.890;5.424;2023-04-01T18:00:29;17.80;91.10
23769;DHT22;12064;50.890;5.424;2023-04-01T18:09:49;17.70;91.10
23769;DHT22;12064;50.890;5.424;2023-04-01T18:18:50;17.80;91.10
23769;DHT22;12064;50.890;5.424;2023-04-01T18:37:27;17.80;91.10
23769;DHT22;12064;50.890;5.424;2023-04-01T18:46:38;17.70;91.10
23769;DHT22;12064;50.890;5.424;2023-04-01T18:55:42;17.70;91.00
23769;DHT22;12064;50.890;5.424;2023-04-01T19:04:37;17.70;91.10
23769;DHT22;12064;50.890;5.424;2023-04-01T19:23:25;17.70;91.10
23769;DHT22;12064;50.890;5.424;2023-04-01T19:41:56;17.70;91.20
23769;DHT22;12064;50.890;5.424;2023-04-01T20:00:28;17.70;91.20
23769;DHT22;12064;50.890;5.424;2023-04-01T20:10:01;17.60;91.20
23769;DHT22;12064;50.890;5.424;2023-04-01T20:19:00;17.60;91.20
23769;DHT22;12064;50.890;5.424;2023-04-01T20:37:06;17.60;91.30
23769;DHT22;12064;50.890;5.424;2023-04-01T20:46:20;17.60;91.30
23769;DHT22;12064;50.890;5.424;2023-04-01T21:04:27;17.60;91.30
23769;DHT22;12064;50.890;5.424;2023-04-01T21:50:42;17.60;91.60
23769;DHT22;12064;50.890;5.424;2023-04-01T22:17:32;17.60;91.60
23769;DHT22;12064;50.890;5.424;2023-04-01T22:35:49;17.50;91.60
23769;DHT22;12064;50.890;5.424;2023-04-01T23:03:29;17.50;91.60
23769;DHT22;12064;50.890;5.424;2023-04-01T23:12:22;17.50;91.60
23769;DHT22;12064;50.890;5.424;2023-04-01T23:21:21;17.50;91.60
23769;DHT22;12064;50.890;5.424;2023-04-01T23:39:39;17.50;91.70
23769;DHT22;12064;50.890;5.424;2023-04-01T23:48:33;17.50;91.60
23769;DHT22;12064;50.890;5.424;2023-04-01T23:57:34;17.50;91.70
